Time;durP1;ratioP1;P1;durP2;ratioP2;P2;SDS_P1;SDS_P2;PMS_P1;PMS_P2;Temp;Humidity;BMP_temperature;BMP_pressure;BME280_temperature;BME280_humidity;BME280_pressure;Samples;Min_cycle;Max_cycle;Signal;HPM_P1;HPM_P2
2023/07/26 00:03:06;;;;;;;17.60;9.10;;;;;;;25.50;100.00;97928.85;100956;1296;616117;-66
2023/07/26 00:05:33;;;;;;;13.50;9.20;;;;;;;25.74;100.00;97931.48;103479;1278;61584;-67
2023/07/26 00:08:00;;;;;;;13.30;10.10;;;;;;;25.72;100.00;97927.71;103540;1281;58949;-66
2023/07/26 00:10:27;;;;;;;12.80;8.90;;;;;;;25.71;100.00;97926.14;103543;1273;71868;-67
2023/07/26 00:12:54;;;;;;;12.50;8.60;;;;;;;25.68;100.00;97930.64;103461;1275;70200;-66
2023/07/26 00:15:21;;;;;;;18.20;8.80;;;;;;;25.65;100.00;97929.23;103316;1270;215944;-66
2023/07/26 00:17:47;;;;;;;10.90;8.20;;;;;;;25.62;100.00;97935.35;104017;1264;60476;-64
2023/07/26 00:20:17;;;;;;;11.80;8.40;;;;;;;25.59;100.00;97933.56;104070;1268;60909;-66
2023/07/26 00:22:44;;;;;;;18.40;8.50;;;;;;;25.56;100.00;97929.33;103927;1268;72805;-66
2023/07/26 00:25:10;;;;;;;13.10;7.90;;;;;;;25.54;100.00;97930.36;103864;1267;68836;-64
2023/07/26 00:27:37;;;;;;;12.70;8.20;;;;;;;25.54;100.00;97937.36;107079;1263;72548;-66
2023/07/26 00:30:05;;;;;;;11.40;7.70;;;;;;;25.52;100.00;97931.85;104561;1268;62664;-65
2023/07/26 00:32:32;;;;;;;13.90;8.10;;;;;;;25.50;100.00;97929.61;104154;1272;59364;-65
2023/07/26 00:34:59;;;;;;;13.10;7.90;;;;;;;25.49;100.00;97927.08;103846;1270;72794;-65
2023/07/26 00:37:26;;;;;;;12.50;7.40;;;;;;;25.47;100.00;97927.89;103961;1267;69478;-64
2023/07/26 00:39:53;;;;;;;16.90;7.10;;;;;;;25.43;100.00;97924.83;103722;1271;72773;-67
2023/07/26 00:42:20;;;;;;;15.20;7.20;;;;;;;25.39;100.00;97921.43;103881;1278;61516;-66
2023/07/26 00:44:46;;;;;;;12.50;7.00;;;;;;;25.34;100.00;97919.18;103912;1265;60185;-66
2023/07/26 00:47:13;;;;;;;14.40;6.80;;;;;;;25.29;100.00;97927.69;103990;1267;73303;-65
2023/07/26 00:49:40;;;;;;;15.30;6.80;;;;;;;25.24;100.00;97930.27;103507;1279;70130;-63
2023/07/26 00:52:09;;;;;;;13.30;6.50;;;;;;;25.21;100.00;97932.30;103548;1263;73000;-69
2023/07/26 00:54:36;;;;;;;10.40;6.10;;;;;;;25.18;100.00;97929.56;103907;1265;61321;-69
2023/07/26 00:57:03;;;;;;;9.30;6.00;;;;;;;25.17;100.00;97927.11;103624;1286;60231;-68
2023/07/26 00:59:30;;;;;;;10.10;6.10;;;;;;;25.13;100.00;97935.09;103610;1281;73452;-67
2023/07/26 01:01:56;;;;;;;9.20;5.80;;;;;;;25.07;100.00;97929.14;103583;1266;69224;-67
2023/07/26 01:04:24;;;;;;;12.00;5.40;;;;;;;25.04;100.00;97924.84;103809;1264;72190;-67
2023/07/26 01:06:56;;;;;;;11.20;5.30;;;;;;;25.01;100.00;97925.73;105045;1260;61960;-69
2023/07/26 01:09:35;;;;;;;10.40;5.10;;;;;;;24.99;100.00;97928.02;105069;1264;60629;-69
2023/07/26 01:12:06;;;;;;;9.60;5.30;;;;;;;24.96;100.00;97929.95;103793;1280;73844;-67
2023/07/26 01:14:34;;;;;;;14.10;5.00;;;;;;;24.91;100.00;97934.91;104005;1277;69187;-69
2023/07/26 01:17:01;;;;;;;7.20;4.70;;;;;;;24.89;100.00;97931.84;104048;1261;73280;-66
2023/07/26 01:19:28;;;;;;;6.80;5.20;;;;;;;24.87;100.00;97931.70;104071;1273;61819;-67
2023/07/26 01:21:55;;;;;;;12.90;5.50;;;;;;;24.82;100.00;97944.44;103880;1270;59704;-67
2023/07/26 01:24:22;;;;;;;12.40;5.00;;;;;;;24.77;100.00;97942.52;104192;1261;73690;-69
2023/07/26 01:26:49;;;;;;;10.00;4.90;;;;;;;24.74;100.00;97938.77;107425;1260;69326;-68
2023/07/26 01:29:16;;;;;;;7.70;4.30;;;;;;;24.69;100.00;97941.85;106222;1261;72407;-67
2023/07/26 01:31:42;;;;;;;11.30;5.00;;;;;;;24.67;100.00;97944.48;104169;1276;61893;-64
2023/07/26 01:34:09;;;;;;;8.60;4.80;;;;;;;24.63;100.00;97948.38;103813;1263;60222;-68
2023/07/26 01:36:36;;;;;;;9.90;4.40;;;;;;;24.58;100.00;97963.14;103980;1278;73814;-67
2023/07/26 01:39:05;;;;;;;10.10;4.00;;;;;;;24.54;100.00;97971.59;104210;1272;69900;-65
2023/07/26 01:41:34;;;;;;;5.90;4.00;;;;;;;24.54;100.00;97973.77;103910;1262;73009;-69
2023/07/26 01:44:01;;;;;;;8.90;4.40;;;;;;;24.50;100.00;97971.83;104049;1278;62236;-67
2023/07/26 01:46:29;;;;;;;8.90;3.80;;;;;;;24.46;100.00;97975.42;103929;1267;59895;-67
2023/07/26 01:48:57;;;;;;;10.10;4.40;;;;;;;24.40;100.00;97980.85;103911;1261;73741;-69
2023/07/26 01:51:24;;;;;;;9.30;4.10;;;;;;;24.33;100.00;97975.45;103752;1269;69341;-66
2023/07/26 01:53:51;;;;;;;7.70;3.90;;;;;;;24.29;100.00;97979.85;103822;1264;72782;-69
2023/07/26 01:56:18;;;;;;;7.40;4.00;;;;;;;24.26;100.00;97975.56;103867;1260;61580;-70
2023/07/26 01:58:46;;;;;;;9.70;3.70;;;;;;;24.23;100.00;97980.13;103865;1279;59832;-68
2023/07/26 02:01:13;;;;;;;7.40;3.80;;;;;;;24.19;100.00;97982.70;103972;1274;72965;-65
2023/07/26 02:03:41;;;;;;;8.80;3.70;;;;;;;24.15;100.00;97987.34;103795;1278;69762;-68
2023/07/26 02:06:07;;;;;;;6.90;3.80;;;;;;;24.10;100.00;97992.89;104066;1256;73599;-69
2023/07/26 02:08:34;;;;;;;7.00;4.00;;;;;;;24.04;100.00;98003.25;103953;1256;61920;-69
2023/07/26 02:11:01;;;;;;;8.10;3.80;;;;;;;24.01;100.00;98006.81;104178;1256;60159;-67
2023/07/26 02:13:30;;;;;;;5.10;3.50;;;;;;;23.98;100.00;98009.05;104166;1256;73717;-69
2023/07/26 02:15:57;;;;;;;6.90;3.60;;;;;;;23.93;100.00;98006.27;104433;1256;69243;-68
2023/07/26 02:18:25;;;;;;;8.60;3.50;;;;;;;23.92;100.00;98010.81;104173;1256;73060;-65
2023/07/26 02:20:51;;;;;;;13.50;3.80;;;;;;;23.89;100.00;98019.28;104329;1258;61792;-68
2023/07/26 02:23:18;;;;;;;6.90;3.80;;;;;;;23.87;100.00;98018.73;103981;1260;60201;-68
2023/07/26 02:25:45;;;;;;;9.60;3.50;;;;;;;23.85;100.00;98012.71;105375;1259;73282;-71
2023/07/26 02:28:12;;;;;;;8.60;3.70;;;;;;;23.83;100.00;98010.30;107564;1256;69368;-69
2023/07/26 02:30:39;;;;;;;11.70;4.10;;;;;;;23.82;100.00;98017.56;105336;1259;72311;-67
2023/07/26 02:33:06;;;;;;;8.10;3.90;;;;;;;23.78;100.00;98027.97;104515;1256;61752;-67
2023/07/26 02:35:33;;;;;;;9.60;4.10;;;;;;;23.72;100.00;98043.83;104495;1255;59773;-68
2023/07/26 02:37:59;;;;;;;8.90;3.80;;;;;;;23.72;100.00;98044.04;104226;1261;73885;-65
2023/07/26 02:40:26;;;;;;;14.60;4.60;;;;;;;23.70;100.00;98045.63;104593;1256;69624;-68
2023/07/26 02:42:53;;;;;;;7.20;4.50;;;;;;;23.67;100.00;98048.52;104069;1260;72905;-69
2023/07/26 02:45:22;;;;;;;7.60;3.80;;;;;;;23.63;100.00;98048.52;104253;1257;61893;-67
2023/07/26 02:47:49;;;;;;;6.20;3.20;;;;;;;23.60;100.00;98051.95;104376;1260;59774;-69
2023/07/26 02:50:16;;;;;;;8.70;4.60;;;;;;;23.57;100.00;98064.83;104275;1268;72696;-66
2023/07/26 02:52:43;;;;;;;8.30;3.30;;;;;;;23.53;100.00;98065.84;104184;1272;70037;-68
2023/07/26 02:55:10;;;;;;;9.40;4.20;;;;;;;23.49;100.00;98066.96;104316;1255;72890;-68
2023/07/26 02:57:37;;;;;;;6.20;3.30;;;;;;;23.44;100.00;98073.92;104334;1260;60952;-66
2023/07/26 03:00:05;;;;;;;10.80;3.50;;;;;;;23.41;100.00;98080.33;104348;1262;60468;-66
2023/07/26 03:02:32;;;;;;;13.60;3.60;;;;;;;23.40;100.00;98084.61;104246;1257;72240;-67
2023/07/26 03:04:59;;;;;;;8.10;3.10;;;;;;;23.39;100.00;98080.44;104090;1262;69927;-67
2023/07/26 03:07:26;;;;;;;9.30;3.40;;;;;;;23.37;100.00;98089.73;104316;1256;72827;-64
2023/07/26 03:09:53;;;;;;;8.50;3.80;;;;;;;23.34;100.00;98108.30;107563;1256;61540;-66
2023/07/26 03:12:20;;;;;;;7.30;3.80;;;;;;;23.34;100.00;98103.71;105994;1255;60115;-68
2023/07/26 03:14:47;;;;;;;8.00;3.70;;;;;;;23.33;100.00;98114.22;104292;1256;72549;-66
2023/07/26 03:17:14;;;;;;;6.10;3.40;;;;;;;23.30;100.00;98121.19;104638;1272;69864;-64
2023/07/26 03:19:50;;;;;;;9.50;3.30;;;;;;;23.31;100.00;98121.39;104644;1261;72921;-64
2023/07/26 03:22:17;;;;;;;9.00;3.60;;;;;;;23.30;100.00;98131.52;104253;1262;61514;-65
2023/07/26 03:24:44;;;;;;;8.60;3.40;;;;;;;23.29;100.00;98134.30;104270;1260;59727;-68
2023/07/26 03:27:11;;;;;;;9.80;4.00;;;;;;;23.28;100.00;98146.78;104355;1272;72925;-68
2023/07/26 03:29:38;;;;;;;5.80;3.70;;;;;;;23.27;100.00;98147.59;104245;1271;69867;-70
2023/07/26 03:32:05;;;;;;;8.20;3.50;;;;;;;23.25;100.00;98155.20;104199;1261;72235;-68
2023/07/26 03:34:32;;;;;;;;;;;;;;;23.26;100.00;98156.15;104325;1268;61700;-65
2023/07/26 03:36:59;;;;;;;4.80;3.50;;;;;;;23.25;100.00;98153.35;104301;1256;59759;-66
2023/07/26 03:39:26;;;;;;;6.90;3.60;;;;;;;23.24;100.00;98154.02;104041;1259;72571;-68
2023/07/26 03:41:53;;;;;;;7.20;4.10;;;;;;;23.24;100.00;98157.68;104120;1273;70030;-67
2023/07/26 03:44:20;;;;;;;9.30;3.50;;;;;;;23.26;100.00;98159.55;104333;1262;74071;-66
2023/07/26 03:46:48;;;;;;;8.80;3.50;;;;;;;23.28;100.00;98159.35;104201;1271;61972;-68
2023/07/26 03:49:15;;;;;;;10.20;3.20;;;;;;;23.31;100.00;98163.98;104288;1261;60255;-69
2023/07/26 03:51:42;;;;;;;11.60;3.70;;;;;;;23.34;100.00;98156.40;104155;1256;73765;-65
2023/07/26 03:54:09;;;;;;;9.20;4.30;;;;;;;23.37;100.00;98154.54;104290;1262;70460;-62
2023/07/26 03:56:36;;;;;;;5.60;3.90;;;;;;;23.40;100.00;98158.17;104345;1264;73133;-62
2023/07/26 03:59:03;;;;;;;10.90;3.60;;;;;;;23.42;100.00;98158.95;104098;1277;62105;-62
2023/07/26 04:01:30;;;;;;;7.80;3.70;;;;;;;23.44;100.00;98157.20;104308;1271;60052;-63
2023/07/26 04:03:57;;;;;;;8.20;4.00;;;;;;;23.44;100.00;98158.60;104261;1277;72653;-63
2023/07/26 04:06:25;;;;;;;8.10;3.90;;;;;;;23.50;100.00;98156.06;104306;1268;69776;-65
2023/07/26 04:08:52;;;;;;;5.30;3.60;;;;;;;23.52;100.00;98157.66;104225;1256;72110;-63
2023/07/26 04:11:19;;;;;;;7.30;4.00;;;;;;;23.55;100.00;98152.16;104428;1259;62553;-65
2023/07/26 04:13:46;;;;;;;9.00;3.40;;;;;;;23.57;100.00;98145.30;104289;1259;60563;-63
2023/07/26 04:16:17;;;;;;;13.10;3.50;;;;;;;23.61;100.00;98147.55;104377;1256;73442;-64
2023/07/26 04:18:44;;;;;;;9.00;3.90;;;;;;;23.65;100.00;98156.88;104416;1270;68402;-64
2023/07/26 04:21:13;;;;;;;9.40;3.90;;;;;;;23.67;100.00;98162.80;104454;1259;72188;-65
2023/07/26 04:23:41;;;;;;;10.30;4.10;;;;;;;23.69;100.00;98168.81;104348;1269;62518;-64
2023/07/26 04:26:07;;;;;;;11.10;4.20;;;;;;;23.73;100.00;98171.80;104373;1258;60673;-64
2023/07/26 04:28:34;;;;;;;7.10;4.20;;;;;;;23.78;100.00;98176.80;108042;1255;73550;-65
2023/07/26 04:31:01;;;;;;;7.80;4.00;;;;;;;23.82;100.00;98170.55;107269;1255;69192;-65
2023/07/26 04:33:28;;;;;;;10.40;3.70;;;;;;;23.87;100.00;98159.35;104570;1259;72948;-64
2023/07/26 04:35:57;;;;;;;7.30;3.90;;;;;;;23.93;100.00;98142.20;104480;1268;61865;-64
2023/07/26 04:38:25;;;;;;;6.80;3.80;;;;;;;23.91;100.00;98131.20;104367;1257;60477;-62
2023/07/26 04:40:52;;;;;;;5.70;3.70;;;;;;;23.91;100.00;98138.14;104717;1259;73798;-62
2023/07/26 04:43:21;;;;;;;7.50;3.60;;;;;;;23.93;100.00;98137.91;104442;1266;69806;-60
2023/07/26 04:45:49;;;;;;;8.40;4.20;;;;;;;23.95;100.00;98138.80;104193;1259;73114;-60
2023/07/26 04:48:19;;;;;;;9.40;3.80;;;;;;;23.96;100.00;98137.73;104348;1268;61565;-61
2023/07/26 04:50:47;;;;;;;9.30;4.00;;;;;;;23.99;100.00;98138.98;104290;1259;60537;-61
2023/07/26 04:53:17;;;;;;;6.40;3.70;;;;;;;24.04;100.00;98144.94;104354;1259;74084;-61
2023/07/26 04:55:45;;;;;;;7.70;4.00;;;;;;;24.09;100.00;98155.61;104173;1267;69302;-61
2023/07/26 04:58:12;;;;;;;7.10;3.60;;;;;;;24.12;100.00;98161.02;104551;1262;72556;-61
2023/07/26 05:00:39;;;;;;;13.50;4.20;;;;;;;24.18;100.00;98159.10;105010;1259;61516;-61
2023/07/26 05:03:07;;;;;;;8.20;3.80;;;;;;;24.23;100.00;98152.64;104580;1259;60185;-61
2023/07/26 05:05:34;;;;;;;;;;;;;;;24.29;100.00;98154.48;104526;1259;73593;-62
2023/07/26 05:08:01;;;;;;;10.10;3.90;;;;;;;24.33;100.00;98171.87;104299;1267;69960;-59
2023/07/26 05:10:29;;;;;;;7.80;3.70;;;;;;;24.36;100.00;98177.81;104401;1266;72801;-61
2023/07/26 05:12:56;;;;;;;5.60;4.00;;;;;;;24.38;100.00;98176.94;107917;1256;61492;-60
2023/07/26 05:15:23;;;;;;;6.50;3.70;;;;;;;24.42;100.00;98180.27;108004;1255;60766;-61
2023/07/26 05:17:52;;;;;;;9.50;4.00;;;;;;;24.44;100.00;98185.00;108007;1256;73403;-58
2023/07/26 05:20:20;;;;;;;7.50;3.60;;;;;;;24.46;100.00;98191.20;107997;1256;69483;-60
2023/07/26 05:22:46;;;;;;;9.60;3.70;;;;;;;24.43;100.00;98185.70;105298;1259;72592;-62
2023/07/26 05:25:13;;;;;;;8.10;4.30;;;;;;;24.43;100.00;98193.51;104395;1259;60806;-59
2023/07/26 05:27:40;;;;;;;12.50;4.10;;;;;;;24.43;100.00;98192.44;104749;1255;60498;-60
2023/07/26 05:30:07;;;;;;;10.40;5.00;;;;;;;24.47;100.00;98193.05;104382;1259;73203;-60
2023/07/26 05:32:35;;;;;;;6.50;3.90;;;;;;;24.53;100.00;98194.88;104422;1259;68633;-60
2023/07/26 05:35:02;;;;;;;9.50;3.90;;;;;;;24.60;100.00;98187.52;104250;1275;72321;-59
2023/07/26 05:37:34;;;;;;;6.00;3.80;;;;;;;24.68;100.00;98195.98;104287;1263;61699;-60
2023/07/26 05:40:01;;;;;;;10.20;4.00;;;;;;;24.76;100.00;98200.08;104326;1268;60444;-60
2023/07/26 05:42:28;;;;;;;7.60;4.00;;;;;;;24.82;100.00;98212.23;104387;1259;74336;-61
2023/07/26 05:44:55;;;;;;;9.20;4.30;;;;;;;24.83;100.00;98217.45;104254;1273;69780;-60
2023/07/26 05:47:22;;;;;;;7.50;3.90;;;;;;;24.83;100.00;98208.38;104530;1256;72325;-61
2023/07/26 05:49:49;;;;;;;7.80;3.80;;;;;;;24.82;100.00;98193.85;104049;1256;60578;-60
2023/07/26 05:52:16;;;;;;;7.90;3.70;;;;;;;24.85;100.00;98194.93;104392;1257;60515;-59
2023/07/26 05:54:43;;;;;;;8.00;4.00;;;;;;;24.91;100.00;98188.56;104248;1266;74238;-61
2023/07/26 05:57:10;;;;;;;5.50;3.60;;;;;;;25.02;100.00;98182.46;104318;1263;69158;-61
2023/07/26 05:59:36;;;;;;;7.50;4.30;;;;;;;25.09;100.00;98185.40;104360;1261;73052;-60
2023/07/26 06:02:03;;;;;;;9.60;3.50;;;;;;;25.14;100.00;98193.52;104447;1259;61501;-60
2023/07/26 06:04:30;;;;;;;9.70;4.00;;;;;;;25.19;100.00;98199.18;104415;1257;60706;-59
2023/07/26 06:06:57;;;;;;;4.80;3.30;;;;;;;25.27;100.00;98189.96;104659;1257;73257;-59
2023/07/26 06:09:25;;;;;;;5.20;3.60;;;;;;;25.31;100.00;98183.54;104409;1257;68477;-59
2023/07/26 06:11:52;;;;;;;9.90;4.10;;;;;;;25.32;100.00;98169.40;104416;1259;73519;-61
2023/07/26 06:14:24;;;;;;;7.20;4.00;;;;;;;25.40;100.00;98179.67;104417;1253;61575;-59
2023/07/26 06:16:51;;;;;;;5.70;4.00;;;;;;;25.45;100.00;98188.35;104402;1257;60451;-60
2023/07/26 06:19:18;;;;;;;10.80;4.20;;;;;;;25.48;100.00;98195.54;104344;1257;73416;-59
2023/07/26 06:21:45;;;;;;;7.50;3.80;;;;;;;25.49;100.00;98199.15;104536;1265;69571;-60
2023/07/26 06:24:12;;;;;;;6.30;3.90;;;;;;;25.48;100.00;98200.35;104474;1253;71857;-61
2023/07/26 06:26:39;;;;;;;10.80;3.90;;;;;;;25.50;100.00;98205.48;104515;1267;61402;-59
2023/07/26 06:29:06;;;;;;;7.10;3.60;;;;;;;25.48;100.00;98201.30;106587;1253;60329;-60
2023/07/26 06:31:32;;;;;;;7.50;4.10;;;;;;;25.49;100.00;98197.94;108392;1252;74034;-61
2023/07/26 06:34:00;;;;;;;9.40;4.00;;;;;;;25.57;100.00;98202.39;105442;1257;69379;-60
2023/07/26 06:36:27;;;;;;;5.80;3.90;;;;;;;25.68;100.00;98212.45;104883;1254;73017;-61
2023/07/26 06:38:54;;;;;;;7.40;4.30;;;;;;;25.81;100.00;98221.09;104580;1269;62094;-60
2023/07/26 06:41:20;;;;;;;8.50;4.30;;;;;;;25.88;100.00;98220.34;104444;1256;60495;-59
2023/07/26 06:43:47;;;;;;;8.50;3.90;;;;;;;25.90;100.00;98228.55;104743;1258;73422;-60
2023/07/26 06:46:14;;;;;;;8.30;4.10;;;;;;;25.93;100.00;98228.88;104362;1257;72159;-60
2023/07/26 06:48:41;;;;;;;7.20;3.60;;;;;;;25.96;100.00;98233.09;104478;1257;72859;-62
2023/07/26 06:51:12;;;;;;;7.20;3.90;;;;;;;25.98;100.00;98230.70;104360;1269;61531;-60
2023/07/26 06:53:38;;;;;;;5.30;3.30;;;;;;;26.03;100.00;98239.99;104359;1257;60810;-60
2023/07/26 06:56:06;;;;;;;6.10;3.70;;;;;;;26.09;100.00;98246.91;104476;1264;72875;-60
2023/07/26 06:58:32;;;;;;;7.20;4.10;;;;;;;26.08;100.00;98248.23;104329;1266;69888;-61
2023/07/26 07:00:59;;;;;;;6.50;4.60;;;;;;;26.11;100.00;98241.59;104296;1253;72278;-60
2023/07/26 07:03:27;;;;;;;7.40;4.00;;;;;;;26.12;100.00;98240.71;104459;1252;61856;-60
2023/07/26 07:05:54;;;;;;;8.90;3.90;;;;;;;26.12;100.00;98246.23;104291;1265;60089;-61
2023/07/26 07:08:21;;;;;;;5.00;3.90;;;;;;;26.13;100.00;98249.47;104388;1257;74177;-60
2023/07/26 07:10:48;;;;;;;5.70;4.20;;;;;;;26.13;100.00;98258.83;104361;1265;70323;-61
2023/07/26 07:13:15;;;;;;;6.80;4.10;;;;;;;26.09;100.00;98254.29;104337;1257;73067;-60
2023/07/26 07:15:41;;;;;;;9.10;3.70;;;;;;;26.13;100.00;98258.25;105848;1253;60525;-61
2023/07/26 07:18:08;;;;;;;5.70;3.90;;;;;;;26.18;100.00;98256.61;108085;1253;59733;-65
2023/07/26 07:20:42;;;;;;;5.10;3.50;;;;;;;26.22;100.00;98246.66;104516;1252;74019;-60
2023/07/26 07:23:09;;;;;;;6.10;3.90;;;;;;;26.29;100.00;98248.45;104509;1269;70407;-61
2023/07/26 07:25:38;;;;;;;5.30;4.00;;;;;;;26.36;100.00;98257.73;105587;1253;71484;-59
2023/07/26 07:28:05;;;;;;;8.90;4.00;;;;;;;26.45;100.00;98257.64;105545;1259;63061;-61
2023/07/26 07:30:32;;;;;;;5.20;3.40;;;;;;;26.51;100.00;98250.78;104433;1266;59962;-61
2023/07/26 07:32:59;;;;;;;7.00;3.60;;;;;;;26.56;100.00;98239.54;104425;1275;73402;-61
2023/07/26 07:35:27;;;;;;;4.90;3.80;;;;;;;26.62;100.00;98251.30;104380;1259;69223;-60
2023/07/26 07:37:54;;;;;;;4.90;4.10;;;;;;;26.69;100.00;98265.47;104484;1274;71710;-61
2023/07/26 07:40:21;;;;;;;10.40;3.60;;;;;;;26.70;100.00;98274.19;104321;1257;61556;-63
2023/07/26 07:42:48;;;;;;;6.50;3.30;;;;;;;26.67;100.00;98273.43;104390;1259;60656;-60
2023/07/26 07:45:15;;;;;;;4.30;3.30;;;;;;;26.62;100.00;98261.96;104441;1256;74117;-61
2023/07/26 07:47:43;;;;;;;;;;;;;;;26.56;100.00;98261.83;104301;1257;70061;-60
2023/07/26 07:50:09;;;;;;;6.20;3.80;;;;;;;26.48;100.00;98255.09;104662;1259;72202;-62
2023/07/26 07:52:36;;;;;;;4.20;3.60;;;;;;;26.42;100.00;98257.13;104445;1270;61503;-61
2023/07/26 07:55:04;;;;;;;3.90;3.30;;;;;;;26.42;100.00;98261.80;104504;1259;60584;-63
2023/07/26 07:57:30;;;;;;;4.60;3.50;;;;;;;26.48;100.00;98268.14;104409;1257;73581;-61
2023/07/26 07:59:58;;;;;;;6.40;3.60;;;;;;;26.52;100.00;98278.90;104429;1266;69214;-62
2023/07/26 08:02:25;;;;;;;4.20;3.20;;;;;;;26.55;100.00;98279.28;104388;1266;73194;-61
2023/07/26 08:04:51;;;;;;;3.50;3.20;;;;;;;26.58;100.00;98269.63;104438;1272;61775;-61
2023/07/26 08:07:19;;;;;;;7.10;3.60;;;;;;;26.60;100.00;98255.48;104334;1258;60563;-61
2023/07/26 08:09:46;;;;;;;8.80;3.80;;;;;;;26.68;100.00;98258.16;104363;1257;73200;-61
2023/07/26 08:12:13;;;;;;;7.90;3.00;;;;;;;26.82;100.00;98252.81;104426;1257;69987;-61
2023/07/26 08:14:40;;;;;;;5.20;3.60;;;;;;;26.93;100.00;98225.95;104468;1254;72800;-61
2023/07/26 08:17:07;;;;;;;5.70;3.10;;;;;;;27.05;100.00;98220.33;104441;1257;62485;-60
2023/07/26 08:19:34;;;;;;;3.80;3.10;;;;;;;27.14;100.00;98220.33;104381;1272;59894;-60
2023/07/26 08:22:01;;;;;;;4.70;3.60;;;;;;;27.18;100.00;98221.98;104376;1253;73093;-60
2023/07/26 08:24:28;;;;;;;4.60;3.20;;;;;;;27.16;100.00;98230.34;104604;1264;70121;-60
2023/07/26 08:26:56;;;;;;;;;;;;;;;27.11;100.00;98248.79;104429;1258;72825;-60
2023/07/26 08:29:23;;;;;;;4.80;3.80;;;;;;;27.07;100.00;98267.67;105609;1256;61573;-62
2023/07/26 08:31:50;;;;;;;;;;;;;;;27.07;100.00;98270.32;108208;1254;59857;-60
2023/07/26 08:34:17;;;;;;;4.80;3.40;;;;;;;26.98;100.00;98274.80;106770;1258;73704;-60
2023/07/26 08:36:44;;;;;;;3.70;2.90;;;;;;;26.93;100.00;98278.18;104805;1260;69215;-60
2023/07/26 08:39:11;;;;;;;5.70;3.10;;;;;;;26.83;100.00;98301.72;104719;1260;73034;-59
2023/07/26 08:41:58;;;;;;;4.70;3.10;;;;;;;26.69;100.00;98344.89;104659;1259;61724;-60
2023/07/26 08:44:25;;;;;;;3.40;3.10;;;;;;;26.57;100.00;98337.34;104739;1258;60563;-59
2023/07/26 08:46:52;;;;;;;3.30;2.80;;;;;;;26.46;100.00;98325.10;104201;1260;74346;-59
2023/07/26 08:49:19;;;;;;;6.50;2.80;;;;;;;26.36;100.00;98350.99;104456;1269;69899;-59
2023/07/26 08:51:46;;;;;;;6.90;3.20;;;;;;;26.23;100.00;98347.97;104465;1268;72201;-59
2023/07/26 08:54:13;;;;;;;3.40;2.80;;;;;;;26.16;100.00;98366.86;104433;1267;61827;-60
2023/07/26 08:56:40;;;;;;;3.60;3.00;;;;;;;26.01;100.00;98415.20;104588;1259;60559;-59
2023/07/26 08:59:07;;;;;;;3.70;2.70;;;;;;;25.77;100.00;98449.16;104422;1255;74286;-59
2023/07/26 09:01:34;;;;;;;5.40;3.00;;;;;;;25.64;100.00;98466.09;104451;1267;68445;-60
2023/07/26 09:04:16;;;;;;;3.80;3.50;;;;;;;25.56;100.00;98509.52;104357;1258;72798;-60
2023/07/26 09:06:45;;;;;;;3.10;2.90;;;;;;;25.46;100.00;98475.38;104366;1259;61757;-59
2023/07/26 09:09:12;;;;;;;3.20;2.90;;;;;;;25.38;100.00;98470.66;104642;1259;60559;-65
2023/07/26 09:11:48;;;;;;;7.30;3.40;;;;;;;25.27;100.00;98457.52;104294;1266;73478;-63
2023/07/26 09:14:14;;;;;;;6.30;3.40;;;;;;;25.08;100.00;98453.96;104539;1254;69581;-63
2023/07/26 09:16:43;;;;;;;5.00;3.20;;;;;;;24.92;100.00;98488.17;104683;1260;73111;-63
2023/07/26 09:19:10;;;;;;;5.70;3.60;;;;;;;24.78;100.00;98511.00;107243;1256;61830;-64
2023/07/26 09:21:38;;;;;;;4.50;2.80;;;;;;;24.63;100.00;98503.13;107627;1254;60531;-64
2023/07/26 09:24:05;;;;;;;4.60;3.40;;;;;;;24.57;100.00;98505.19;105101;1260;73575;-63
2023/07/26 09:26:42;;;;;;;3.30;3.00;;;;;;;24.57;100.00;98489.35;104979;1258;69992;-66
2023/07/26 09:29:11;;;;;;;4.90;2.70;;;;;;;24.54;100.00;98467.28;104619;1257;72285;-64
2023/07/26 09:31:39;;;;;;;4.80;3.40;;;;;;;24.51;100.00;98473.08;104575;1258;61643;-64
2023/07/26 09:34:12;;;;;;;3.80;3.10;;;;;;;24.48;100.00;98495.56;104336;1267;60532;-61
2023/07/26 09:36:48;;;;;;;4.20;2.90;;;;;;;24.43;100.00;98516.53;104461;1254;74416;-65
2023/07/26 09:39:16;;;;;;;4.50;3.40;;;;;;;24.44;100.00;98539.55;104671;1266;70014;-63
2023/07/26 09:41:45;;;;;;;3.60;3.00;;;;;;;24.43;100.00;98549.04;104675;1259;73179;-64
2023/07/26 09:44:15;;;;;;;3.10;2.70;;;;;;;24.39;100.00;98547.67;104267;1266;61896;-63
2023/07/26 09:46:52;;;;;;;3.70;3.00;;;;;;;24.36;100.00;98546.79;104526;1264;61060;-65
2023/07/26 09:49:22;;;;;;;3.90;3.50;;;;;;;24.36;100.00;98534.66;104700;1257;72662;-62
2023/07/26 09:51:54;;;;;;;3.90;3.60;;;;;;;24.36;100.00;98535.02;104418;1258;70062;-64
2023/07/26 09:54:28;;;;;;;4.10;3.80;;;;;;;24.37;100.00;98548.88;104434;1258;73442;-63
2023/07/26 09:57:00;;;;;;;3.90;3.60;;;;;;;24.31;100.00;98524.12;104613;1268;61585;-63
2023/07/26 09:59:28;;;;;;;4.50;4.10;;;;;;;24.27;100.00;98367.11;104947;1254;60478;-63
2023/07/26 10:01:56;;;;;;;4.40;4.00;;;;;;;24.30;100.00;98274.13;104485;1258;72731;-62
2023/07/26 10:04:45;;;;;;;6.10;3.90;;;;;;;24.42;100.00;98267.47;104739;1267;70275;-63
2023/07/26 10:07:12;;;;;;;4.80;3.30;;;;;;;24.51;100.00;98292.68;104455;1258;72918;-65
2023/07/26 10:09:43;;;;;;;5.00;3.20;;;;;;;24.56;100.00;98348.36;104877;1257;61517;-65
2023/07/26 10:12:10;;;;;;;4.50;3.20;;;;;;;24.58;100.00;98377.61;104581;1254;60006;-66
2023/07/26 10:14:38;;;;;;;3.90;3.50;;;;;;;24.56;100.00;98379.31;104836;1259;74348;-66
2023/07/26 10:17:05;;;;;;;4.90;3.20;;;;;;;24.52;100.00;98375.08;104528;1258;69739;-65
2023/07/26 10:19:32;;;;;;;4.70;3.30;;;;;;;24.50;100.00;98360.52;104575;1257;72260;-67
2023/07/26 10:21:59;;;;;;;4.20;3.10;;;;;;;24.54;100.00;98356.88;104464;1258;62495;-65
2023/07/26 10:24:26;;;;;;;3.70;3.30;;;;;;;24.61;100.00;98354.99;104638;1254;60463;-60
2023/07/26 10:26:53;;;;;;;3.50;3.20;;;;;;;24.69;100.00;98359.50;104558;1256;73875;-60
2023/07/26 10:29:20;;;;;;;4.00;3.50;;;;;;;24.75;100.00;98351.16;104726;1254;68156;-60
2023/07/26 10:32:07;;;;;;;3.60;2.90;;;;;;;24.81;100.00;98334.77;107017;1254;72434;-60
2023/07/26 10:34:34;;;;;;;3.30;3.00;;;;;;;24.77;100.00;98330.55;107913;1257;61943;-60
2023/07/26 10:37:18;;;;;;;4.40;3.20;;;;;;;24.77;100.00;98339.89;104659;1256;60443;-61
2023/07/26 10:39:45;;;;;;;3.20;2.90;;;;;;;24.85;100.00;98331.55;105031;1254;73476;-60
2023/07/26 10:42:33;;;;;;;3.10;2.80;;;;;;;24.88;100.00;98320.61;104645;1255;70027;-60
2023/07/26 10:45:01;;;;;;;3.20;2.70;;;;;;;24.94;100.00;98319.00;104983;1258;72670;-61
2023/07/26 10:47:29;;;;;;;3.00;2.80;;;;;;;25.01;100.00;98312.83;104610;1268;62079;-60
2023/07/26 10:50:06;;;;;;;3.20;2.90;;;;;;;25.13;100.00;98320.22;104573;1257;60563;-60
2023/07/26 10:52:35;;;;;;;6.20;2.90;;;;;;;25.25;100.00;98322.45;104323;1257;72729;-60
2023/07/26 10:55:18;;;;;;;2.60;2.40;;;;;;;25.39;100.00;98313.77;104352;1258;69896;-60
2023/07/26 10:57:48;;;;;;;3.00;2.70;;;;;;;25.55;100.00;98306.38;104474;1255;72894;-62
2023/07/26 11:00:23;;;;;;;3.00;2.70;;;;;;;25.62;100.00;98313.67;104449;1268;60890;-63
2023/07/26 11:02:51;;;;;;;3.60;2.40;;;;;;;25.70;100.00;98314.31;104726;1264;60440;-60
2023/07/26 11:05:19;;;;;;;2.90;2.70;;;;;;;25.83;100.00;98320.21;104412;1260;73395;-60
2023/07/26 11:07:49;;;;;;;2.80;2.60;;;;;;;26.01;100.00;98324.42;104590;1254;69939;-60
2023/07/26 11:10:21;;;;;;;2.40;2.30;;;;;;;26.17;100.00;98327.64;104521;1254;72369;-62
2023/07/26 11:12:50;;;;;;;2.20;2.10;;;;;;;26.28;100.00;98321.90;104407;1270;61768;-60
2023/07/26 11:15:32;;;;;;;2.40;2.30;;;;;;;26.33;100.00;98319.07;104231;1267;60255;-59
2023/07/26 11:18:20;;;;;;;3.90;2.40;;;;;;;26.42;100.00;98315.88;104747;1256;73946;-59
2023/07/26 11:20:50;;;;;;;4.00;2.50;;;;;;;26.51;100.00;98323.96;104405;1254;70164;-60
2023/07/26 11:23:25;;;;;;;2.90;2.70;;;;;;;26.59;100.00;98323.72;108115;1254;73177;-59